Time;durP1;ratioP1;P1;durP2;ratioP2;P2;SDS_P1;SDS_P2;PMS_P1;PMS_P2;Temp;Humidity;BMP_temperature;BMP_pressure;BME280_temperature;BME280_humidity;BME280_pressure;Samples;Min_cycle;Max_cycle;Signal;HPM_P1;HPM_P2
2021/08/15 00:02:11;;;;;;;11.27;10.00;;;18.40;99.90;;;19.05;100.00;95232.00;2165813;56;26870;-57
2021/08/15 00:04:58;;;;;;;13.30;9.48;;;18.40;99.90;;;19.12;100.00;95224.00;2375932;56;26706;-56
2021/08/15 00:07:44;;;;;;;12.02;9.55;;;18.40;99.90;;;19.05;100.00;95225.00;2162591;56;26876;-56
2021/08/15 00:10:30;;;;;;;11.07;9.70;;;18.20;99.90;;;18.90;100.00;95231.00;2375628;56;26653;-57
2021/08/15 00:13:17;;;;;;;15.25;10.85;;;18.20;99.90;;;18.90;100.00;95221.00;2162916;56;26652;-57
2021/08/15 00:16:04;;;;;;;11.73;9.90;;;18.10;99.90;;;18.83;100.00;95228.00;2375495;56;26113;-56
2021/08/15 00:18:50;;;;;;;11.52;9.75;;;18.10;99.90;;;18.70;100.00;95228.00;2176755;55;26772;-56
2021/08/15 00:21:38;;;;;;;10.77;9.27;;;18.10;99.90;;;18.71;100.00;95227.00;2186729;55;27289;-56
2021/08/15 00:24:24;;;;;;;13.98;9.85;;;18.00;99.90;;;18.62;100.00;95217.00;2404711;55;26580;-56
2021/08/15 00:27:11;;;;;;;13.80;9.60;;;18.00;99.90;;;18.71;100.00;95221.00;2187307;55;26787;-59
2021/08/15 00:29:57;;;;;;;11.88;9.38;;;18.00;99.90;;;18.73;100.00;95215.00;2404551;55;27095;-56
2021/08/15 00:32:45;;;;;;;14.43;9.88;;;18.00;99.90;;;18.67;100.00;95204.00;2186229;55;26124;-59
2021/08/15 00:35:32;;;;;;;12.27;9.30;;;17.90;99.90;;;18.62;100.00;95207.00;2187321;55;26812;-55
2021/08/15 00:38:18;;;;;;;10.40;9.15;;;17.90;99.90;;;18.60;100.00;95206.00;2186390;55;27096;-60
2021/08/15 00:41:06;;;;;;;12.73;9.32;;;17.80;99.90;;;18.51;100.00;95203.00;2186268;55;26147;-57
2021/08/15 00:46:50;;;;;;;12.90;10.02;;;17.70;99.90;;;18.45;100.00;95183.00;2446419;54;33618;-56
2021/08/15 00:49:36;;;;;;;12.37;9.52;;;17.60;99.90;;;18.28;100.00;95200.00;2257491;55;27074;-57
2021/08/15 00:52:22;;;;;;;12.27;10.23;;;17.60;99.90;;;18.17;100.00;95194.00;2497142;54;26669;-56
2021/08/15 00:58:07;;;;;;;11.82;9.30;;;17.40;99.90;;;18.11;100.00;95181.00;2446234;54;34090;-56
2021/08/15 01:00:53;;;;;;;10.75;9.23;;;17.40;99.90;;;18.06;100.00;95189.00;2226103;54;26601;-56
2021/08/15 01:03:40;;;;;;;11.27;9.68;;;17.60;99.90;;;18.27;100.00;95193.00;2469432;54;26224;-56
2021/08/15 01:09:23;;;;;;;12.63;11.00;;;17.70;99.90;;;18.51;100.00;95173.00;2434268;54;33948;-56
2021/08/15 01:12:09;;;;;;;10.77;9.07;;;17.60;99.90;;;18.30;100.00;95190.00;2190127;56;27429;-56
2021/08/15 01:14:57;;;;;;;15.20;9.80;;;17.60;99.90;;;18.27;100.00;95189.00;2408664;55;26924;-56
2021/08/15 01:17:44;;;;;;;10.80;9.20;;;17.60;99.90;;;18.23;100.00;95189.00;2190058;56;26652;-57
2021/08/15 01:20:30;;;;;;;12.05;9.10;;;17.60;99.90;;;18.26;100.00;95194.00;2424688;55;27349;-57
2021/08/15 01:23:16;;;;;;;10.60;8.80;;;17.60;99.90;;;18.28;100.00;95187.00;2215528;55;26596;-56
2021/08/15 01:26:04;;;;;;;13.07;8.77;;;17.60;99.90;;;18.25;100.00;95190.00;2439224;55;26740;-56
2021/08/15 01:28:52;;;;;;;12.32;9.23;;;17.50;99.90;;;18.19;100.00;95192.00;2215416;55;26412;-56
2021/08/15 01:31:38;;;;;;;11.75;9.27;;;17.50;99.90;;;18.17;100.00;95183.00;2214728;56;26701;-56
2021/08/15 01:34:24;;;;;;;12.60;9.60;;;17.40;99.90;;;17.99;100.00;95185.00;2439311;55;26686;-57
2021/08/15 01:40:09;;;;;;;10.15;8.90;;;17.30;99.90;;;18.02;100.00;95168.00;2494027;53;33666;-56
2021/08/15 01:42:56;;;;;;;12.75;9.73;;;17.50;99.90;;;18.08;100.00;95181.00;2500512;54;26748;-56
2021/08/15 01:45:42;;;;;;;11.35;9.05;;;17.40;99.90;;;18.15;100.00;95174.00;2278955;53;26624;-56
2021/08/15 01:51:25;;;;;;;9.07;8.18;;;17.40;99.90;;;18.35;100.00;95172.00;2406178;55;33971;-56
2021/08/15 01:54:12;;;;;;;10.27;7.93;;;17.50;99.90;;;18.19;100.00;95176.00;2403142;55;26865;-57
2021/08/15 01:59:55;;;;;;;9.88;8.50;;;17.50;99.90;;;18.28;100.00;95163.00;2417343;55;34188;-56
2021/08/15 02:02:43;;;;;;;12.93;8.68;;;17.50;99.90;;;18.14;100.00;95167.00;2186261;56;27262;-57
2021/08/15 02:05:29;;;;;;;8.80;7.82;;;17.30;99.90;;;18.01;100.00;95168.00;2434256;55;27294;-57
2021/08/15 02:08:15;;;;;;;11.15;8.55;;;17.20;99.90;;;17.96;100.00;95175.00;2211218;56;26666;-56
2021/08/15 02:11:02;;;;;;;9.63;8.38;;;17.20;99.90;;;17.94;100.00;95172.00;2433853;55;27066;-57
2021/08/15 02:13:49;;;;;;;10.95;8.35;;;17.30;99.90;;;17.99;100.00;95174.00;2211261;56;27448;-56
2021/08/15 02:16:36;;;;;;;10.07;8.20;;;17.50;99.90;;;18.17;100.00;95170.00;2432949;55;26736;-56
2021/08/15 02:19:22;;;;;;;9.10;7.62;;;17.60;99.90;;;18.32;100.00;95170.00;2187781;56;26664;-56
2021/08/15 02:22:09;;;;;;;9.60;7.85;;;17.60;99.90;;;18.27;100.00;95165.00;2189578;56;26636;-60
2021/08/15 02:24:55;;;;;;;9.20;7.65;;;17.40;99.90;;;18.14;100.00;95173.00;2426766;55;26753;-56
2021/08/15 02:27:43;;;;;;;10.77;8.45;;;17.30;99.90;;;17.95;100.00;95171.00;2215330;56;26241;-56
2021/08/15 02:30:29;;;;;;;9.27;8.02;;;17.40;99.90;;;18.03;100.00;95166.00;2215423;56;26681;-56
2021/08/15 02:33:16;;;;;;;12.00;8.07;;;17.20;99.90;;;17.86;100.00;95171.00;2216171;55;26802;-56
2021/08/15 02:36:03;;;;;;;9.07;8.00;;;17.10;99.90;;;17.71;100.00;95167.00;2215229;56;26724;-56
2021/08/15 02:41:47;;;;;;;9.70;8.32;;;17.10;99.90;;;17.87;100.00;95155.00;2487263;52;33601;-56
2021/08/15 02:44:34;;;;;;;9.80;7.80;;;17.10;99.90;;;17.74;100.00;95166.00;2252744;54;26780;-56
2021/08/15 02:47:25;;;;;;;12.25;9.13;;;17.00;99.90;;;17.70;100.00;95170.00;2450646;53;27131;-56
2021/08/15 02:50:14;;;;;;;10.52;8.45;;;17.00;99.90;;;17.68;100.00;95178.00;2224923;54;26978;-56
2021/08/15 02:53:00;;;;;;;12.82;8.32;;;16.90;99.90;;;17.65;100.00;95168.00;2239426;55;27118;-56
2021/08/15 02:55:47;;;;;;;11.85;9.13;;;16.90;99.90;;;17.66;100.00;95169.00;2239812;55;26672;-56
2021/08/15 02:58:33;;;;;;;9.02;8.13;;;16.90;99.90;;;17.55;100.00;95168.00;2243447;55;26918;-57
2021/08/15 03:04:16;;;;;;;11.88;8.73;;;16.70;99.90;;;17.48;100.00;95156.00;2441267;55;34321;-55
2021/08/15 03:07:04;;;;;;;11.12;8.32;;;16.70;99.90;;;17.34;100.00;95158.00;2189995;56;26645;-55
2021/08/15 03:09:51;;;;;;;11.95;8.60;;;16.70;99.90;;;17.42;100.00;95156.00;2408308;55;26825;-55
2021/08/15 03:15:33;;;;;;;11.20;8.40;;;16.70;99.90;;;17.48;100.00;95138.00;2453055;53;34978;-56
2021/08/15 03:18:19;;;;;;;10.88;9.10;;;16.60;99.90;;;17.39;100.00;95150.00;2173852;55;26228;-56
2021/08/15 03:21:06;;;;;;;9.60;8.02;;;16.60;99.90;;;17.34;100.00;95144.00;2404914;55;26658;-56
2021/08/15 03:23:52;;;;;;;12.57;8.82;;;16.60;99.90;;;17.19;100.00;95150.00;2212984;56;26827;-56
2021/08/15 03:29:36;;;;;;;10.30;8.00;;;16.50;99.90;;;17.16;100.00;95145.00;2471792;54;33607;-56
2021/08/15 03:32:23;;;;;;;10.57;7.85;;;16.50;99.90;;;17.03;100.00;95157.00;2225082;54;26571;-56
2021/08/15 03:35:10;;;;;;;10.18;8.07;;;16.50;99.90;;;17.06;100.00;95160.00;2222372;55;26793;-55
2021/08/15 03:37:56;;;;;;;11.50;8.40;;;16.60;99.90;;;17.26;100.00;95155.00;2216768;55;26917;-56
2021/08/15 03:40:43;;;;;;;9.48;7.95;;;16.60;99.90;;;17.29;100.00;95155.00;2211086;55;26807;-56
2021/08/15 03:43:29;;;;;;;10.73;7.35;;;16.60;99.90;;;17.26;100.00;95155.00;2432352;55;26652;-55
2021/08/15 03:46:16;;;;;;;10.10;8.07;;;16.70;99.90;;;17.46;100.00;95153.00;2209747;55;27326;-55
2021/08/15 03:49:03;;;;;;;11.32;7.72;;;16.90;99.90;;;17.53;100.00;95154.00;2431264;55;27437;-56
2021/08/15 03:51:49;;;;;;;11.50;8.10;;;16.80;99.90;;;17.55;100.00;95151.00;2209507;55;26654;-56
2021/08/15 03:54:35;;;;;;;10.80;7.75;;;16.80;99.90;;;17.34;100.00;95148.00;2433595;54;27135;-56
2021/08/15 03:57:22;;;;;;;10.57;7.95;;;16.80;99.90;;;17.46;100.00;95156.00;2211198;55;26616;-55
2021/08/15 04:03:08;;;;;;;10.52;7.30;;;16.90;99.90;;;17.65;100.00;95141.00;2463916;54;33898;-56
2021/08/15 04:05:56;;;;;;;11.73;7.57;;;16.80;99.90;;;17.41;100.00;95150.00;2438412;54;26704;-56
2021/08/15 04:08:42;;;;;;;10.98;7.78;;;16.60;99.90;;;17.20;100.00;95149.00;2216220;55;26846;-56
2021/08/15 04:11:29;;;;;;;8.90;7.37;;;16.60;99.90;;;17.30;100.00;95141.00;2440119;54;27561;-55
2021/08/15 04:14:15;;;;;;;10.80;8.27;;;16.70;99.90;;;17.37;100.00;95152.00;2215970;54;27044;-55
2021/08/15 04:17:02;;;;;;;10.63;7.85;;;16.70;99.90;;;17.40;100.00;95148.00;2465991;54;27197;-55
2021/08/15 04:19:48;;;;;;;8.90;7.07;;;16.70;99.90;;;17.34;100.00;95150.00;2238465;55;26854;-56
2021/08/15 04:22:35;;;;;;;8.02;7.22;;;16.50;99.90;;;17.06;100.00;95147.00;2465480;54;26719;-55
2021/08/15 04:25:21;;;;;;;10.68;7.90;;;16.50;99.90;;;17.14;100.00;95154.00;2237108;55;27246;-55
2021/08/15 04:28:07;;;;;;;15.80;8.07;;;16.60;99.90;;;17.30;100.00;95159.00;2463662;54;26876;-56
2021/08/15 04:30:54;;;;;;;10.60;8.05;;;16.60;99.90;;;17.24;100.00;95155.00;2210197;55;27271;-55
2021/08/15 04:33:40;;;;;;;9.35;6.97;;;16.50;99.90;;;17.06;100.00;95153.00;2235805;56;27361;-56
2021/08/15 04:36:26;;;;;;;10.70;7.37;;;16.50;99.90;;;17.14;100.00;95152.00;2457869;55;26141;-55
2021/08/15 04:39:12;;;;;;;11.95;7.87;;;16.50;99.90;;;17.07;100.00;95154.00;2219569;55;26118;-55
2021/08/15 04:41:59;;;;;;;11.10;7.75;;;16.40;99.90;;;16.93;100.00;95153.00;2452460;55;26858;-55
2021/08/15 04:47:42;;;;;;;13.52;8.27;;;16.40;99.90;;;17.17;100.00;95141.00;2398758;54;33751;-55
2021/08/15 04:50:29;;;;;;;11.07;7.62;;;16.50;99.90;;;17.11;100.00;95150.00;2200425;55;26835;-55
2021/08/15 04:53:15;;;;;;;9.77;7.47;;;16.50;99.90;;;17.10;100.00;95154.00;2432898;55;26316;-55
2021/08/15 04:58:58;;;;;;;11.10;8.45;;;16.50;99.90;;;17.11;100.00;95137.00;2456758;54;33559;-56
2021/08/15 05:01:45;;;;;;;14.30;7.80;;;16.50;99.90;;;17.07;100.00;95145.00;2209610;55;26602;-55
2021/08/15 05:04:31;;;;;;;11.93;8.85;;;16.60;99.90;;;17.17;100.00;95165.00;2438698;55;26695;-56
2021/08/15 05:07:18;;;;;;;10.90;8.50;;;16.60;99.90;;;17.23;100.00;95159.00;2216890;55;26828;-56
2021/08/15 05:13:00;;;;;;;11.93;8.63;;;16.70;99.90;;;17.47;100.00;95144.00;2376750;55;33984;-56
2021/08/15 05:15:46;;;;;;;9.43;8.43;;;16.90;99.90;;;17.57;100.00;95165.00;2373232;55;27352;-56
2021/08/15 05:18:33;;;;;;;8.70;7.57;;;17.00;99.90;;;17.76;100.00;95164.00;2165703;55;26220;-56
2021/08/15 05:24:16;;;;;;;10.85;8.48;;;17.30;99.90;;;18.14;100.00;95146.00;2465902;54;34413;-56
2021/08/15 05:27:03;;;;;;;12.32;7.80;;;17.40;99.90;;;18.18;100.00;95153.00;2238032;54;26960;-56
2021/08/15 05:29:49;;;;;;;14.05;8.80;;;17.60;99.90;;;18.35;100.00;95156.00;2237300;54;27163;-54
2021/08/15 05:32:36;;;;;;;10.93;8.05;;;17.80;99.90;;;18.51;100.00;95158.00;2465861;54;27276;-56
2021/08/15 05:35:22;;;;;;;9.80;8.00;;;17.80;99.90;;;18.53;100.00;95158.00;2237585;55;26849;-56
2021/08/15 05:38:09;;;;;;;13.85;9.85;;;17.90;99.90;;;18.58;100.00;95156.00;2465674;54;26702;-56
2021/08/15 05:40:55;;;;;;;14.60;9.63;;;18.10;99.90;;;18.75;100.00;95154.00;2238451;55;26140;-56
2021/08/15 05:43:42;;;;;;;15.52;9.82;;;18.30;99.90;;;19.07;100.00;95155.00;2466625;54;26765;-56
2021/08/15 05:49:26;;;;;;;13.90;10.20;;;18.60;99.90;;;19.47;100.00;95139.00;2473887;53;34196;-56
2021/08/15 05:52:12;;;;;;;12.90;9.63;;;18.80;99.90;;;19.49;100.00;95151.00;2262794;55;26665;-55
2021/08/15 05:54:59;;;;;;;12.23;10.25;;;18.90;99.90;;;19.62;100.00;95158.00;2497241;54;26758;-56
2021/08/15 06:00:42;;;;;;;17.98;10.52;;;19.30;99.90;;;20.17;100.00;95142.00;2427560;54;34538;-56
2021/08/15 06:03:28;;;;;;;14.50;10.60;;;19.40;99.90;;;20.22;100.00;95158.00;2213865;55;26762;-56
2021/08/15 06:06:14;;;;;;;16.23;10.57;;;19.50;99.90;;;20.33;100.00;95150.00;2456773;54;26584;-56
2021/08/15 06:12:04;;;;;;;15.68;10.20;;;19.90;99.90;;;20.93;100.00;95140.00;2450560;54;33752;-56
2021/08/15 06:17:47;;;;;;;11.40;9.23;;;20.20;99.90;;;21.09;100.00;95133.00;2352788;55;34859;-56
2021/08/15 06:20:33;;;;;;;11.20;8.60;;;20.30;99.90;;;21.08;100.00;95138.00;2315632;56;26705;-55
2021/08/15 06:23:20;;;;;;;14.90;8.52;;;20.60;99.90;;;21.42;100.00;95128.00;2120848;57;26110;-56
2021/08/15 06:26:06;;;;;;;9.40;8.00;;;20.80;99.90;;;21.69;100.00;95129.00;2341052;56;27360;-56
2021/08/15 06:31:51;;;;;;;11.93;7.43;;;23.20;99.90;;;25.87;100.00;95123.00;2390619;55;35267;-56
2021/08/15 06:34:37;;;;;;;12.65;7.07;;;25.00;99.90;;;27.88;100.00;95114.00;2164172;57;26979;-56
2021/08/15 06:37:24;;;;;;;11.90;7.72;;;26.60;99.90;;;29.70;100.00;95121.00;2369270;55;26826;-54
2021/08/15 06:40:13;;;;;;;9.50;6.72;;;27.90;99.90;;;31.21;100.00;95116.00;2172199;56;25544;-55
2021/08/15 06:43:07;;;;;;;9.90;6.05;;;29.00;99.90;;;32.59;100.00;95115.00;2379239;55;26918;-55
2021/08/15 06:45:54;;;;;;;13.75;7.37;;;29.50;99.90;;;33.24;100.00;95118.00;2178289;56;26895;-55
2021/08/15 06:48:44;;;;;;;9.45;6.72;;;30.40;99.90;;;34.34;100.00;95114.00;2432925;54;26730;-54
2021/08/15 06:54:28;;;;;;;10.52;6.75;;;31.50;99.90;;;35.46;97.92;95109.00;2398042;55;33333;-55
2021/08/15 06:57:15;;;;;;;12.88;6.85;;;31.90;99.90;;;35.68;98.07;95119.00;2174944;56;25680;-55
2021/08/15 07:00:02;;;;;;;12.48;6.55;;;32.00;99.90;;;35.85;89.94;95108.00;2178738;56;25776;-55
2021/08/15 07:02:48;;;;;;;13.32;7.35;;;32.20;99.90;;;36.29;83.46;95112.00;2180850;56;25577;-55
2021/08/15 07:05:35;;;;;;;10.50;6.45;;;32.60;99.90;;;36.43;83.85;95104.00;2401004;56;25625;-55
2021/08/15 07:08:21;;;;;;;10.32;6.78;;;32.70;99.90;;;36.66;90.13;95110.00;2183675;56;25674;-55
2021/08/15 07:11:08;;;;;;;9.52;6.82;;;33.60;99.90;;;36.81;82.35;95107.00;2195374;56;25636;-55
2021/08/15 07:13:54;;;;;;;14.45;7.55;;;33.50;99.90;;;36.68;78.07;95106.00;2204536;55;25562;-55
2021/08/15 07:16:40;;;;;;;13.45;7.18;;;34.10;99.90;;;37.30;80.46;95111.00;2195388;56;25572;-55
2021/08/15 07:22:24;;;;;;;10.50;7.60;;;34.90;99.90;;;38.36;76.38;95106.00;2415535;55;32738;-55
2021/08/15 07:25:11;;;;;;;11.07;7.15;;;35.60;99.90;;;38.80;71.33;95104.00;2160492;56;25634;-55
2021/08/15 07:28:00;;;;;;;10.88;7.20;;;34.60;99.90;;;37.48;73.08;95099.00;2372495;55;26228;-55
2021/08/15 07:30:46;;;;;;;15.40;7.28;;;34.50;99.90;;;38.25;75.38;95104.00;2160172;56;25807;-55
2021/08/15 07:33:32;;;;;;;9.10;7.00;;;35.60;99.90;;;38.91;61.00;95107.00;2373049;55;25723;-54
2021/08/15 07:39:16;;;;;;;12.18;7.28;;;34.70;99.90;;;37.88;58.19;95099.00;2430894;54;32654;-55
2021/08/15 07:42:04;;;;;;;11.10;7.20;;;34.30;99.90;;;36.73;62.37;95105.00;2204131;54;26042;-55
2021/08/15 07:44:50;;;;;;;13.57;7.07;;;34.30;99.90;;;36.74;60.16;95102.00;2436156;54;25676;-56
2021/08/15 07:47:37;;;;;;;13.45;7.37;;;34.20;99.90;;;37.29;74.24;95101.00;2212040;54;25891;-55
2021/08/15 07:50:24;;;;;;;15.63;7.15;;;35.10;99.90;;;38.08;57.10;95097.00;2238157;56;25117;-55
2021/08/15 07:56:18;;;;;;;14.95;7.55;;;34.70;99.90;;;37.79;62.07;95090.00;2434140;54;32771;-55
2021/08/15 07:59:04;;;;;;;12.02;6.93;;;34.80;99.90;;;37.98;66.56;95090.00;2463737;54;25793;-55
2021/08/15 08:01:51;;;;;;;13.85;7.20;;;35.30;99.90;;;38.90;59.87;95096.00;2232288;55;25734;-55
2021/08/15 08:04:38;;;;;;;11.85;6.68;;;35.60;99.90;;;39.03;58.73;95092.00;2469761;54;26254;-55
2021/08/15 08:07:25;;;;;;;12.45;6.53;;;35.90;99.90;;;39.36;57.64;95093.00;2232529;55;25193;-54
2021/08/15 08:10:12;;;;;;;11.88;7.32;;;36.20;99.90;;;39.59;50.90;95092.00;2214304;55;25735;-55
2021/08/15 08:15:56;;;;;;;11.65;6.90;;;36.90;99.90;;;39.71;52.92;95083.00;2513173;53;32808;-54
2021/08/15 08:18:43;;;;;;;9.65;7.10;;;35.20;99.90;;;36.78;60.25;95078.00;2241782;55;26264;-54
2021/08/15 08:21:30;;;;;;;17.33;7.15;;;34.70;99.90;;;37.44;62.37;95075.00;2471451;54;25081;-55
2021/08/15 08:24:16;;;;;;;13.02;7.35;;;34.30;99.90;;;37.37;64.13;95076.00;2457353;54;25847;-54
2021/08/15 08:27:04;;;;;;;15.82;7.50;;;35.00;99.90;;;37.96;59.83;95071.00;2212617;54;26238;-55
2021/08/15 08:29:50;;;;;;;15.93;7.57;;;35.60;99.90;;;38.56;57.28;95070.00;2215781;54;26244;-55
2021/08/15 08:32:37;;;;;;;12.63;6.90;;;35.90;99.90;;;39.75;53.47;95071.00;2443656;54;25671;-55
2021/08/15 08:35:23;;;;;;;14.75;7.47;;;36.80;99.90;;;40.81;54.97;95067.00;2254811;54;26449;-55
2021/08/15 08:38:10;;;;;;;12.63;7.40;;;37.40;99.90;;;40.65;52.14;95056.00;2262505;54;25672;-55
2021/08/15 08:40:56;;;;;;;13.40;6.70;;;36.60;99.90;;;39.14;52.48;95065.00;2268280;54;25607;-55
2021/08/15 08:43:44;;;;;;;11.45;6.65;;;36.60;99.90;;;39.81;51.21;95055.00;2269044;54;26447;-55
2021/08/15 08:46:30;;;;;;;15.13;7.47;;;36.30;99.90;;;39.50;53.49;95062.00;2503491;54;25648;-55
2021/08/15 08:49:18;;;;;;;13.57;6.57;;;36.60;99.90;;;39.63;52.14;95060.00;2472603;54;26276;-55
2021/08/15 08:52:07;;;;;;;13.27;7.28;;;36.90;99.90;;;40.00;54.67;95055.00;2474799;53;25598;-55
2021/08/15 08:54:54;;;;;;;12.05;6.85;;;36.70;99.90;;;39.46;52.30;95055.00;2504862;53;25969;-55
2021/08/15 09:00:36;;;;;;;14.80;7.47;;;36.60;99.90;;;39.66;46.97;95042.00;2380536;56;33353;-55
2021/08/15 09:03:22;;;;;;;13.07;6.62;;;37.20;99.90;;;40.10;46.64;95047.00;2352947;57;25823;-56
2021/08/15 09:06:22;;;;;;;12.52;7.40;;;37.70;99.90;;;40.49;48.78;95039.00;2139576;57;25241;-55
2021/08/15 09:09:14;;;;;;;15.05;6.85;;;37.20;99.90;;;40.19;48.75;95033.00;2342296;57;26116;-56
2021/08/15 09:12:01;;;;;;;13.80;6.87;;;37.30;99.90;;;41.13;48.17;95038.00;2136326;57;25642;-56
2021/08/15 09:14:47;;;;;;;16.37;7.07;;;37.10;99.90;;;40.36;48.05;95023.00;2366634;57;25096;-55
2021/08/15 09:17:37;;;;;;;13.52;6.80;;;37.80;99.90;;;41.95;43.91;95026.00;2371657;57;26108;-55
2021/08/15 09:20:35;;;;;;;13.88;7.45;;;37.70;99.90;;;40.54;43.66;95017.00;2376208;56;26145;-55
2021/08/15 09:23:24;;;;;;;13.35;7.28;;;36.80;99.90;;;38.99;47.83;95014.00;2163203;56;25616;-55
2021/08/15 09:26:17;;;;;;;13.68;6.80;;;36.70;99.90;;;39.64;46.28;95012.00;2163065;58;25644;-54
2021/08/15 09:29:17;;;;;;;13.48;7.30;;;36.40;99.90;;;38.52;48.65;95005.00;2163373;58;26296;-56
2021/08/15 09:32:05;;;;;;;15.82;7.10;;;35.40;99.90;;;38.03;52.32;95008.00;2164213;57;25795;-56
2021/08/15 09:34:58;;;;;;;12.55;7.15;;;36.50;99.90;;;39.53;51.14;95011.00;2163553;58;26347;-55
2021/08/15 09:37:45;;;;;;;13.55;7.12;;;36.90;99.90;;;39.24;48.29;95003.00;2158455;56;26008;-55
2021/08/15 09:40:38;;;;;;;14.25;7.28;;;37.00;99.90;;;40.30;52.40;95001.00;2375706;56;26157;-55
2021/08/15 09:43:27;;;;;;;11.70;6.65;;;36.90;99.90;;;39.18;53.00;94995.00;2374407;56;25858;-54
2021/08/15 09:46:14;;;;;;;14.90;7.10;;;37.60;99.90;;;39.92;51.83;94996.00;2360965;56;26340;-55
2021/08/15 09:52:15;;;;;;;14.18;7.12;;;37.10;99.90;;;39.30;54.49;94990.00;2445999;54;32958;-55
2021/08/15 09:55:02;;;;;;;12.82;6.93;;;36.60;99.90;;;39.10;60.11;94988.00;2447908;53;25558;-55
2021/08/15 10:00:47;;;;;;;10.82;6.80;;;36.30;99.90;;;37.18;59.56;94988.00;2381442;55;33791;-54
2021/08/15 10:03:36;;;;;;;16.17;7.65;;;35.70;99.90;;;36.98;58.66;94983.00;2156847;56;25752;-55
2021/08/15 10:09:19;;;;;;;16.77;7.65;;;35.60;99.90;;;37.14;63.97;94975.00;2492202;53;32574;-56
2021/08/15 10:12:07;;;;;;;13.57;7.80;;;35.60;99.90;;;37.14;64.66;94973.00;2230271;54;25527;-55
2021/08/15 10:14:54;;;;;;;14.43;7.18;;;35.20;99.90;;;36.96;71.02;94966.00;2464213;54;25766;-55
2021/08/15 10:17:43;;;;;;;16.67;7.43;;;34.50;99.90;;;35.57;73.78;94962.00;2235862;56;25757;-55
2021/08/15 10:20:31;;;;;;;14.68;7.32;;;34.70;99.90;;;36.69;82.92;94968.00;2465643;54;25086;-55
2021/08/15 10:23:18;;;;;;;13.77;7.03;;;35.00;99.90;;;37.67;81.32;94967.00;2235934;55;26099;-55
2021/08/15 10:26:24;;;;;;;13.35;7.50;;;35.00;99.90;;;36.73;76.07;94960.00;2235066;55;26094;-55
2021/08/15 10:32:36;;;;;;;15.05;7.07;;;35.20;99.90;;;37.09;75.80;94962.00;2475890;53;32090;-56
2021/08/15 10:35:24;;;;;;;15.10;7.30;;;35.40;99.90;;;37.45;80.97;94951.00;2445026;54;25837;-55
2021/08/15 10:41:53;;;;;;;11.20;6.82;;;33.20;99.90;;;34.14;96.36;94943.00;2502570;53;32984;-58
2021/08/15 10:45:02;;;;;;;14.70;7.05;;;33.60;99.90;;;34.95;90.49;94945.00;2469470;54;25537;-54
2021/08/15 10:51:00;;;;;;;11.40;6.85;;;34.00;99.90;;;36.15;74.84;94929.00;2338592;55;32900;-57
2021/08/15 10:53:46;;;;;;;15.23;6.55;;;34.90;99.90;;;37.05;62.97;94929.00;2329768;56;25112;-54
2021/08/15 10:56:53;;;;;;;13.48;6.87;;;35.70;99.90;;;38.12;55.68;94928.00;2139424;56;25840;-55
2021/08/15 10:59:42;;;;;;;10.88;6.45;;;35.50;99.90;;;38.46;57.26;94914.00;2131535;56;25687;-54
2021/08/15 11:02:34;;;;;;;14.80;6.22;;;35.60;99.90;;;37.56;53.93;94913.00;2138125;56;25265;-56
2021/08/15 11:08:55;;;;;;;13.80;6.07;;;35.50;99.90;;;38.07;55.50;94902.00;2379708;55;33111;-56
2021/08/15 11:12:10;;;;;;;15.77;6.90;;;35.20;99.90;;;36.07;56.96;94905.00;2177307;56;26205;-57
2021/08/15 11:15:03;;;;;;;14.93;6.80;;;35.20;99.90;;;35.79;61.45;94893.00;2433054;55;25832;-57
2021/08/15 11:18:10;;;;;;;11.70;5.95;;;34.80;99.90;;;35.59;68.54;94891.00;2210616;56;25479;-57
2021/08/15 11:20:56;;;;;;;14.90;6.40;;;34.50;99.90;;;35.07;67.02;94896.00;2185554;55;27152;-57
2021/08/15 11:23:45;;;;;;;17.30;6.43;;;34.10;99.90;;;34.28;74.99;94886.00;2397818;55;27237;-57
2021/08/15 11:26:31;;;;;;;13.73;6.15;;;34.00;99.90;;;34.40;79.58;94889.00;2183316;55;25598;-57
2021/08/15 11:29:21;;;;;;;15.48;6.05;;;34.00;99.90;;;34.72;78.70;94884.00;2407262;55;25728;-57
2021/08/15 11:35:13;;;;;;;13.62;6.18;;;33.30;99.90;;;34.25;81.67;94873.00;2414613;55;33178;-57
2021/08/15 11:38:00;;;;;;;8.70;5.45;;;33.50;99.90;;;33.86;74.36;94878.00;2228959;54;26140;-57
2021/08/15 11:40:49;;;;;;;9.95;5.37;;;33.50;99.90;;;34.01;98.28;94873.00;2232921;54;26301;-57
2021/08/15 11:43:35;;;;;;;12.05;5.78;;;33.70;99.90;;;34.48;85.28;94873.00;2452557;54;27761;-56
2021/08/15 11:46:22;;;;;;;9.98;5.60;;;34.00;99.90;;;34.47;78.91;94867.00;2196500;56;25605;-56
2021/08/15 11:49:08;;;;;;;13.18;5.47;;;33.90;99.90;;;34.15;69.03;94868.00;2420112;55;26060;-57
2021/08/15 11:52:17;;;;;;;13.02;6.28;;;33.30;99.90;;;33.78;64.17;94864.00;2184695;57;25126;-55
2021/08/15 11:55:17;;;;;;;10.60;5.82;;;33.20;99.90;;;33.33;72.30;94866.00;2409406;55;25175;-54
2021/08/15 12:01:06;;;;;;;10.73;5.78;;;32.90;99.90;;;33.53;79.84;94844.00;2363492;55;34364;-55
2021/08/15 12:04:01;;;;;;;13.70;5.97;;;33.30;99.90;;;34.00;82.07;94844.00;2327991;56;26909;-54
2021/08/15 12:06:48;;;;;;;10.23;6.00;;;33.80;99.90;;;34.47;76.76;94840.00;2136681;56;25945;-55
2021/08/15 12:12:32;;;;;;;13.55;6.15;;;33.40;99.90;;;33.78;84.44;94824.00;2365764;55;34002;-57
2021/08/15 12:15:23;;;;;;;12.32;6.10;;;33.40;99.90;;;33.92;67.93;94826.00;2155227;56;26865;-56
2021/08/15 12:18:24;;;;;;;12.88;6.28;;;33.70;99.90;;;34.39;70.25;94829.00;2391239;55;25111;-56
2021/08/15 12:21:24;;;;;;;12.43;5.78;;;33.80;99.90;;;34.25;75.15;94826.00;2188696;55;25583;-56
2021/08/15 12:24:14;;;;;;;17.52;5.93;;;33.60;99.90;;;34.05;77.04;94822.00;2159372;57;26653;-56
2021/08/15 12:27:04;;;;;;;15.10;6.28;;;33.30;99.90;;;33.54;63.37;94812.00;2390261;56;27008;-57
2021/08/15 12:29:55;;;;;;;12.77;5.40;;;32.90;99.90;;;33.15;78.38;94813.00;2173307;56;25712;-57
2021/08/15 12:32:42;;;;;;;11.48;6.30;;;33.10;99.90;;;33.47;63.42;94811.00;2399624;55;26900;-57
2021/08/15 12:35:28;;;;;;;18.90;6.45;;;33.40;99.90;;;34.05;76.83;94800.00;2180574;56;26899;-57
2021/08/15 12:41:29;;;;;;;14.57;6.53;;;33.70;99.90;;;34.62;89.00;94790.00;2381668;55;34364;-56
2021/08/15 12:47:11;;;;;;;11.45;6.30;;;34.20;99.90;;;35.08;81.87;94786.00;2406166;55;32359;-57
2021/08/15 12:53:15;;;;;;;14.52;6.43;;;34.50;99.90;;;34.73;73.85;94780.00;2330538;56;32982;-56
2021/08/15 12:59:11;;;;;;;12.15;6.18;;;34.20;99.90;;;35.30;73.60;94777.00;2420266;54;33102;-57
2021/08/15 13:01:58;;;;;;;12.95;6.32;;;34.50;99.90;;;35.02;68.52;94777.00;2182597;54;26806;-57
2021/08/15 13:07:41;;;;;;;9.73;5.85;;;34.60;99.90;;;35.35;67.85;94770.00;2394444;55;32868;-57
2021/08/15 13:10:28;;;;;;;10.88;6.12;;;34.50;99.90;;;35.16;67.55;94775.00;2167315;55;25604;-57
2021/08/15 13:13:15;;;;;;;11.65;6.10;;;34.40;99.90;;;34.74;62.48;94768.00;2140726;56;26073;-56
2021/08/15 13:16:01;;;;;;;10.45;6.30;;;34.30;99.90;;;34.81;80.90;94769.00;2374345;56;26713;-54
2021/08/15 13:18:48;;;;;;;8.93;5.93;;;34.10;99.90;;;34.53;67.51;94761.00;2161545;57;25785;-55
2021/08/15 13:21:34;;;;;;;11.02;5.82;;;34.10;99.90;;;34.65;75.84;94756.00;2374101;57;26153;-55
2021/08/15 13:27:18;;;;;;;9.27;5.37;;;34.10;99.90;;;34.84;68.56;94740.00;2306800;57;33592;-57
2021/08/15 13:30:08;;;;;;;9.45;5.82;;;33.70;99.90;;;34.13;67.59;94737.00;2292353;58;25634;-56
2021/08/15 13:35:50;;;;;;;8.70;5.45;;;33.30;99.90;;;33.48;66.06;94721.00;2434450;54;33631;-57
2021/08/15 13:38:36;;;;;;;8.43;5.37;;;32.70;99.90;;;33.33;65.40;94713.00;2214497;55;26830;-57
2021/08/15 13:41:23;;;;;;;10.25;5.50;;;32.80;99.90;;;33.38;67.79;94708.00;2207113;55;26827;-56
2021/08/15 13:44:09;;;;;;;8.40;5.35;;;32.80;99.90;;;33.68;74.45;94709.00;2434839;55;26174;-54
2021/08/15 13:46:55;;;;;;;9.35;5.70;;;33.10;99.90;;;34.15;80.43;94710.00;2212038;55;25919;-56